sensor_id;sensor_type;location;lat;lon;timestamp;P1;durP1;ratioP1;P2;durP2;ratioP2
53409;SDS011;66590;50.734;4.246;2023-04-25T00:00:10;16.02;;;5.93;;
53409;SDS011;66590;50.734;4.246;2023-04-25T00:02:37;18.42;;;6.93;;
53409;SDS011;66590;50.734;4.246;2023-04-25T00:05:05;14.63;;;5.88;;
53409;SDS011;66590;50.734;4.246;2023-04-25T00:07:33;14.95;;;6.50;;
53409;SDS011;66590;50.734;4.246;2023-04-25T00:10:00;19.00;;;6.65;;
53409;SDS011;66590;50.734;4.246;2023-04-25T00:12:28;19.20;;;6.28;;
53409;SDS011;66590;50.734;4.246;2023-04-25T00:14:55;20.08;;;6.45;;
53409;SDS011;66590;50.734;4.246;2023-04-25T00:17:24;16.38;;;6.22;;
53409;SDS011;66590;50.734;4.246;2023-04-25T00:19:51;20.92;;;6.85;;
53409;SDS011;66590;50.734;4.246;2023-04-25T00:22:18;17.17;;;6.30;;
53409;SDS011;66590;50.734;4.246;2023-04-25T00:24:45;20.15;;;6.18;;
53409;SDS011;66590;50.734;4.246;2023-04-25T00:27:13;17.45;;;5.93;;
53409;SDS011;66590;50.734;4.246;2023-04-25T00:29:41;16.55;;;6.30;;
53409;SDS011;66590;50.734;4.246;2023-04-25T00:32:08;18.95;;;5.80;;
53409;SDS011;66590;50.734;4.246;2023-04-25T00:34:36;19.65;;;6.70;;
53409;SDS011;66590;50.734;4.246;2023-04-25T00:37:03;14.45;;;5.90;;
53409;SDS011;66590;50.734;4.246;2023-04-25T00:39:30;17.20;;;6.38;;
53409;SDS011;66590;50.734;4.246;2023-04-25T00:41:58;16.75;;;7.10;;
53409;SDS011;66590;50.734;4.246;2023-04-25T00:44:25;19.30;;;6.05;;
53409;SDS011;66590;50.734;4.246;2023-04-25T00:46:53;16.77;;;6.25;;
53409;SDS011;66590;50.734;4.246;2023-04-25T00:49:21;19.63;;;6.47;;
53409;SDS011;66590;50.734;4.246;2023-04-25T00:51:49;18.60;;;6.53;;
53409;SDS011;66590;50.734;4.246;2023-04-25T00:54:17;20.30;;;7.07;;
53409;SDS011;66590;50.734;4.246;2023-04-25T00:56:44;18.95;;;6.32;;
53409;SDS011;66590;50.734;4.246;2023-04-25T00:59:11;20.50;;;6.35;;
53409;SDS011;66590;50.734;4.246;2023-04-25T01:01:39;18.08;;;6.90;;
53409;SDS011;66590;50.734;4.246;2023-04-25T01:04:07;17.55;;;6.53;;
53409;SDS011;66590;50.734;4.246;2023-04-25T01:06:34;15.05;;;6.10;;
53409;SDS011;66590;50.734;4.246;2023-04-25T01:09:03;20.95;;;6.63;;
53409;SDS011;66590;50.734;4.246;2023-04-25T01:11:30;13.95;;;6.13;;
53409;SDS011;66590;50.734;4.246;2023-04-25T01:13:58;16.35;;;6.63;;
53409;SDS011;66590;50.734;4.246;2023-04-25T01:16:25;16.00;;;6.60;;
53409;SDS011;66590;50.734;4.246;2023-04-25T01:18:52;16.25;;;6.65;;
53409;SDS011;66590;50.734;4.246;2023-04-25T01:21:20;25.50;;;7.30;;
53409;SDS011;66590;50.734;4.246;2023-04-25T01:23:47;19.17;;;6.80;;
53409;SDS011;66590;50.734;4.246;2023-04-25T01:26:15;21.58;;;7.53;;
53409;SDS011;66590;50.734;4.246;2023-04-25T01:28:42;25.52;;;7.70;;
53409;SDS011;66590;50.734;4.246;2023-04-25T01:31:09;18.73;;;7.00;;
53409;SDS011;66590;50.734;4.246;2023-04-25T01:33:37;19.98;;;7.28;;
53409;SDS011;66590;50.734;4.246;2023-04-25T01:36:05;22.77;;;6.97;;
53409;SDS011;66590;50.734;4.246;2023-04-25T01:38:34;16.38;;;6.68;;
53409;SDS011;66590;50.734;4.246;2023-04-25T01:41:02;18.80;;;7.07;;
53409;SDS011;66590;50.734;4.246;2023-04-25T01:43:29;20.38;;;7.40;;
53409;SDS011;66590;50.734;4.246;2023-04-25T01:45:56;18.73;;;7.57;;
53409;SDS011;66590;50.734;4.246;2023-04-25T01:48:24;29.02;;;8.10;;
53409;SDS011;66590;50.734;4.246;2023-04-25T01:50:51;15.55;;;7.00;;
53409;SDS011;66590;50.734;4.246;2023-04-25T01:53:18;22.20;;;7.45;;
53409;SDS011;66590;50.734;4.246;2023-04-25T01:55:46;18.52;;;7.30;;
53409;SDS011;66590;50.734;4.246;2023-04-25T01:58:13;24.10;;;7.55;;
53409;SDS011;66590;50.734;4.246;2023-04-25T02:00:40;21.33;;;7.20;;
53409;SDS011;66590;50.734;4.246;2023-04-25T02:03:07;16.23;;;6.93;;
53409;SDS011;66590;50.734;4.246;2023-04-25T02:05:35;22.38;;;7.18;;
53409;SDS011;66590;50.734;4.246;2023-04-25T02:08:04;18.27;;;7.25;;
53409;SDS011;66590;50.734;4.246;2023-04-25T02:10:32;22.40;;;7.43;;
53409;SDS011;66590;50.734;4.246;2023-04-25T02:13:01;18.92;;;7.20;;
53409;SDS011;66590;50.734;4.246;2023-04-25T02:15:28;19.48;;;6.55;;
53409;SDS011;66590;50.734;4.246;2023-04-25T02:17:56;22.77;;;7.15;;
53409;SDS011;66590;50.734;4.246;2023-04-25T02:20:23;24.45;;;7.40;;
53409;SDS011;66590;50.734;4.246;2023-04-25T02:22:51;18.33;;;6.55;;
53409;SDS011;66590;50.734;4.246;2023-04-25T02:25:18;22.92;;;7.13;;
53409;SDS011;66590;50.734;4.246;2023-04-25T02:27:46;25.55;;;7.15;;
53409;SDS011;66590;50.734;4.246;2023-04-25T02:30:14;21.17;;;7.63;;
53409;SDS011;66590;50.734;4.246;2023-04-25T02:32:41;20.65;;;7.03;;
53409;SDS011;66590;50.734;4.246;2023-04-25T02:35:09;24.73;;;8.32;;
53409;SDS011;66590;50.734;4.246;2023-04-25T02:37:37;17.92;;;6.97;;
53409;SDS011;66590;50.734;4.246;2023-04-25T02:40:05;18.27;;;7.22;;
53409;SDS011;66590;50.734;4.246;2023-04-25T02:42:34;22.55;;;7.88;;
53409;SDS011;66590;50.734;4.246;2023-04-25T02:45:01;19.65;;;7.18;;
53409;SDS011;66590;50.734;4.246;2023-04-25T02:47:30;17.70;;;6.97;;
53409;SDS011;66590;50.734;4.246;2023-04-25T02:49:57;18.98;;;7.25;;
53409;SDS011;66590;50.734;4.246;2023-04-25T02:52:24;21.17;;;8.25;;
53409;SDS011;66590;50.734;4.246;2023-04-25T02:54:51;16.13;;;6.80;;
53409;SDS011;66590;50.734;4.246;2023-04-25T02:57:19;21.67;;;6.72;;
53409;SDS011;66590;50.734;4.246;2023-04-25T02:59:46;26.98;;;8.02;;
53409;SDS011;66590;50.734;4.246;2023-04-25T03:02:13;18.17;;;7.85;;
53409;SDS011;66590;50.734;4.246;2023-04-25T03:04:41;24.00;;;7.90;;
53409;SDS011;66590;50.734;4.246;2023-04-25T03:07:08;23.88;;;7.78;;
53409;SDS011;66590;50.734;4.246;2023-04-25T03:09:36;21.73;;;6.93;;
53409;SDS011;66590;50.734;4.246;2023-04-25T03:12:03;24.15;;;7.68;;
53409;SDS011;66590;50.734;4.246;2023-04-25T03:14:30;25.73;;;8.23;;
53409;SDS011;66590;50.734;4.246;2023-04-25T03:16:57;22.88;;;8.45;;
53409;SDS011;66590;50.734;4.246;2023-04-25T03:19:24;23.63;;;8.80;;
53409;SDS011;66590;50.734;4.246;2023-04-25T03:21:53;26.25;;;8.35;;
53409;SDS011;66590;50.734;4.246;2023-04-25T03:24:20;25.08;;;8.45;;
53409;SDS011;66590;50.734;4.246;2023-04-25T03:26:47;27.52;;;9.43;;
53409;SDS011;66590;50.734;4.246;2023-04-25T03:29:15;21.90;;;8.52;;
53409;SDS011;66590;50.734;4.246;2023-04-25T03:31:42;20.45;;;8.40;;
53409;SDS011;66590;50.734;4.246;2023-04-25T03:34:09;25.88;;;9.27;;
53409;SDS011;66590;50.734;4.246;2023-04-25T03:36:36;19.27;;;8.52;;
53409;SDS011;66590;50.734;4.246;2023-04-25T03:39:07;25.58;;;8.85;;
53409;SDS011;66590;50.734;4.246;2023-04-25T03:41:34;18.92;;;8.73;;
53409;SDS011;66590;50.734;4.246;2023-04-25T03:44:01;19.83;;;7.95;;
53409;SDS011;66590;50.734;4.246;2023-04-25T03:46:28;21.45;;;7.97;;
53409;SDS011;66590;50.734;4.246;2023-04-25T03:48:55;21.50;;;8.48;;
53409;SDS011;66590;50.734;4.246;2023-04-25T03:51:22;17.92;;;7.80;;
53409;SDS011;66590;50.734;4.246;2023-04-25T03:53:49;21.30;;;8.25;;
53409;SDS011;66590;50.734;4.246;2023-04-25T03:56:17;25.48;;;7.30;;
53409;SDS011;66590;50.734;4.246;2023-04-25T03:58:45;21.77;;;7.10;;
53409;SDS011;66590;50.734;4.246;2023-04-25T04:01:12;23.55;;;7.80;;
53409;SDS011;66590;50.734;4.246;2023-04-25T04:03:39;20.92;;;7.18;;
53409;SDS011;66590;50.734;4.246;2023-04-25T04:06:07;27.77;;;8.40;;
53409;SDS011;66590;50.734;4.246;2023-04-25T04:08:34;25.67;;;7.30;;
53409;SDS011;66590;50.734;4.246;2023-04-25T04:11:01;25.10;;;7.13;;
53409;SDS011;66590;50.734;4.246;2023-04-25T04:13:29;20.77;;;7.03;;
53409;SDS011;66590;50.734;4.246;2023-04-25T04:15:57;22.10;;;7.75;;
53409;SDS011;66590;50.734;4.246;2023-04-25T04:18:24;22.92;;;7.60;;
53409;SDS011;66590;50.734;4.246;2023-04-25T04:20:51;25.15;;;7.43;;
53409;SDS011;66590;50.734;4.246;2023-04-25T04:23:19;24.52;;;6.85;;
53409;SDS011;66590;50.734;4.246;2023-04-25T04:25:56;25.52;;;7.55;;
53409;SDS011;66590;50.734;4.246;2023-04-25T04:28:47;20.50;;;6.88;;
53409;SDS011;66590;50.734;4.246;2023-04-25T04:31:43;21.70;;;7.40;;
53409;SDS011;66590;50.734;4.246;2023-04-25T04:34:21;17.27;;;6.90;;
53409;SDS011;66590;50.734;4.246;2023-04-25T04:36:56;20.42;;;6.25;;
53409;SDS011;66590;50.734;4.246;2023-04-25T04:39:23;27.63;;;7.28;;
53409;SDS011;66590;50.734;4.246;2023-04-25T04:41:50;19.83;;;6.68;;
53409;SDS011;66590;50.734;4.246;2023-04-25T04:44:24;15.52;;;6.68;;
53409;SDS011;66590;50.734;4.246;2023-04-25T04:46:51;17.08;;;7.07;;
53409;SDS011;66590;50.734;4.246;2023-04-25T04:49:21;21.35;;;7.15;;
53409;SDS011;66590;50.734;4.246;2023-04-25T04:51:48;20.60;;;7.03;;
53409;SDS011;66590;50.734;4.246;2023-04-25T04:54:15;25.88;;;8.18;;
53409;SDS011;66590;50.734;4.246;2023-04-25T04:56:42;22.60;;;7.40;;
53409;SDS011;66590;50.734;4.246;2023-04-25T04:59:09;28.08;;;7.28;;
53409;SDS011;66590;50.734;4.246;2023-04-25T05:01:37;27.23;;;7.15;;
53409;SDS011;66590;50.734;4.246;2023-04-25T05:04:05;27.83;;;7.03;;
53409;SDS011;66590;50.734;4.246;2023-04-25T05:06:32;26.08;;;6.72;;
53409;SDS011;66590;50.734;4.246;2023-04-25T05:08:59;25.25;;;7.38;;
53409;SDS011;66590;50.734;4.246;2023-04-25T05:11:26;24.90;;;7.38;;
53409;SDS011;66590;50.734;4.246;2023-04-25T05:13:53;23.38;;;6.47;;
53409;SDS011;66590;50.734;4.246;2023-04-25T05:16:20;23.52;;;7.25;;
53409;SDS011;66590;50.734;4.246;2023-04-25T05:18:49;20.58;;;7.35;;
53409;SDS011;66590;50.734;4.246;2023-04-25T05:21:16;21.50;;;7.22;;
53409;SDS011;66590;50.734;4.246;2023-04-25T05:23:43;17.23;;;6.95;;
53409;SDS011;66590;50.734;4.246;2023-04-25T05:26:10;23.60;;;7.35;;
53409;SDS011;66590;50.734;4.246;2023-04-25T05:28:37;21.92;;;7.40;;
53409;SDS011;66590;50.734;4.246;2023-04-25T05:31:04;23.90;;;7.55;;
53409;SDS011;66590;50.734;4.246;2023-04-25T05:33:31;17.90;;;7.47;;
53409;SDS011;66590;50.734;4.246;2023-04-25T05:36:00;18.83;;;7.63;;
53409;SDS011;66590;50.734;4.246;2023-04-25T05:38:27;23.83;;;7.53;;
53409;SDS011;66590;50.734;4.246;2023-04-25T05:40:54;21.70;;;7.05;;
53409;SDS011;66590;50.734;4.246;2023-04-25T05:43:21;19.70;;;7.57;;
53409;SDS011;66590;50.734;4.246;2023-04-25T05:45:48;21.50;;;6.82;;
53409;SDS011;66590;50.734;4.246;2023-04-25T05:48:15;18.23;;;7.22;;
53409;SDS011;66590;50.734;4.246;2023-04-25T05:50:42;19.85;;;7.30;;
53409;SDS011;66590;50.734;4.246;2023-04-25T05:53:11;20.60;;;7.25;;
53409;SDS011;66590;50.734;4.246;2023-04-25T05:55:44;18.40;;;7.40;;
53409;SDS011;66590;50.734;4.246;2023-04-25T05:58:12;18.15;;;7.05;;
53409;SDS011;66590;50.734;4.246;2023-04-25T06:00:45;19.17;;;7.78;;
53409;SDS011;66590;50.734;4.246;2023-04-25T06:03:12;22.50;;;7.47;;
53409;SDS011;66590;50.734;4.246;2023-04-25T06:05:47;16.02;;;6.32;;
53409;SDS011;66590;50.734;4.246;2023-04-25T06:08:15;15.70;;;5.20;;
53409;SDS011;66590;50.734;4.246;2023-04-25T06:10:48;13.30;;;5.63;;
53409;SDS011;66590;50.734;4.246;2023-04-25T06:13:16;18.08;;;6.05;;
53409;SDS011;66590;50.734;4.246;2023-04-25T06:15:43;11.88;;;5.20;;
53409;SDS011;66590;50.734;4.246;2023-04-25T06:18:16;12.65;;;5.10;;
53409;SDS011;66590;50.734;4.246;2023-04-25T06:20:44;12.65;;;5.00;;
53409;SDS011;66590;50.734;4.246;2023-04-25T06:23:19;16.53;;;5.17;;
53409;SDS011;66590;50.734;4.246;2023-04-25T06:25:46;17.13;;;5.70;;
53409;SDS011;66590;50.734;4.246;2023-04-25T06:28:20;10.57;;;5.22;;
53409;SDS011;66590;50.734;4.246;2023-04-25T06:30:47;15.57;;;5.45;;
53409;SDS011;66590;50.734;4.246;2023-04-25T06:33:14;13.52;;;5.80;;
53409;SDS011;66590;50.734;4.246;2023-04-25T06:35:48;14.20;;;4.77;;
53409;SDS011;66590;50.734;4.246;2023-04-25T06:38:15;15.20;;;4.80;;
53409;SDS011;66590;50.734;4.246;2023-04-25T06:40:50;15.40;;;5.30;;
53409;SDS011;66590;50.734;4.246;2023-04-25T06:43:17;13.27;;;5.63;;
53409;SDS011;66590;50.734;4.246;2023-04-25T06:45:50;14.27;;;5.95;;
53409;SDS011;66590;50.734;4.246;2023-04-25T06:48:18;18.45;;;5.90;;
53409;SDS011;66590;50.734;4.246;2023-04-25T06:50:51;13.35;;;5.32;;
53409;SDS011;66590;50.734;4.246;2023-04-25T06:53:19;18.23;;;5.90;;
53409;SDS011;66590;50.734;4.246;2023-04-25T06:55:56;20.77;;;6.03;;
53409;SDS011;66590;50.734;4.246;2023-04-25T06:58:23;17.08;;;5.80;;
53409;SDS011;66590;50.734;4.246;2023-04-25T07:00:56;20.02;;;5.30;;
53409;SDS011;66590;50.734;4.246;2023-04-25T07:03:24;13.88;;;5.45;;
53409;SDS011;66590;50.734;4.246;2023-04-25T07:05:58;13.90;;;4.85;;
53409;SDS011;66590;50.734;4.246;2023-04-25T07:08:25;15.30;;;5.53;;
53409;SDS011;66590;50.734;4.246;2023-04-25T07:11:00;16.58;;;5.20;;
53409;SDS011;66590;50.734;4.246;2023-04-25T07:13:27;12.15;;;5.20;;
53409;SDS011;66590;50.734;4.246;2023-04-25T07:16:01;20.25;;;5.93;;
53409;SDS011;66590;50.734;4.246;2023-04-25T07:18:29;14.95;;;5.63;;
53409;SDS011;66590;50.734;4.246;2023-04-25T07:21:03;17.75;;;5.30;;
53409;SDS011;66590;50.734;4.246;2023-04-25T07:23:30;22.65;;;5.47;;
53409;SDS011;66590;50.734;4.246;2023-04-25T07:26:05;14.38;;;4.72;;
53409;SDS011;66590;50.734;4.246;2023-04-25T07:28:32;16.65;;;5.05;;
53409;SDS011;66590;50.734;4.246;2023-04-25T07:31:05;15.23;;;4.50;;
53409;SDS011;66590;50.734;4.246;2023-04-25T07:33:33;11.40;;;4.30;;
53409;SDS011;66590;50.734;4.246;2023-04-25T07:36:00;14.63;;;4.63;;
53409;SDS011;66590;50.734;4.246;2023-04-25T07:38:34;17.73;;;4.53;;
53409;SDS011;66590;50.734;4.246;2023-04-25T07:41:01;16.75;;;5.18;;
53409;SDS011;66590;50.734;4.246;2023-04-25T07:43:36;18.88;;;4.50;;
53409;SDS011;66590;50.734;4.246;2023-04-25T07:46:03;16.02;;;4.55;;
53409;SDS011;66590;50.734;4.246;2023-04-25T07:48:37;16.70;;;4.53;;
53409;SDS011;66590;50.734;4.246;2023-04-25T07:51:04;13.80;;;4.25;;
53409;SDS011;66590;50.734;4.246;2023-04-25T07:53:37;11.75;;;3.78;;
53409;SDS011;66590;50.734;4.246;2023-04-25T07:56:05;14.52;;;4.30;;
53409;SDS011;66590;50.734;4.246;2023-04-25T07:58:40;13.87;;;3.53;;
53409;SDS011;66590;50.734;4.246;2023-04-25T08:01:07;8.90;;;3.90;;
53409;SDS011;66590;50.734;4.246;2023-04-25T08:03:34;12.27;;;3.92;;
53409;SDS011;66590;50.734;4.246;2023-04-25T08:06:02;13.77;;;4.10;;
53409;SDS011;66590;50.734;4.246;2023-04-25T08:08:33;11.18;;;3.60;;
53409;SDS011;66590;50.734;4.246;2023-04-25T08:11:00;12.40;;;4.07;;
53409;SDS011;66590;50.734;4.246;2023-04-25T08:13:27;8.45;;;3.38;;
53409;SDS011;66590;50.734;4.246;2023-04-25T08:15:56;11.93;;;3.95;;
53409;SDS011;66590;50.734;4.246;2023-04-25T08:18:23;14.43;;;3.50;;
53409;SDS011;66590;50.734;4.246;2023-04-25T08:20:50;11.30;;;3.25;;
53409;SDS011;66590;50.734;4.246;2023-04-25T08:23:17;14.35;;;3.67;;
53409;SDS011;66590;50.734;4.246;2023-04-25T08:25:44;13.13;;;3.92;;
53409;SDS011;66590;50.734;4.246;2023-04-25T08:28:11;10.85;;;3.08;;
53409;SDS011;66590;50.734;4.246;2023-04-25T08:30:38;13.88;;;3.80;;
53409;SDS011;66590;50.734;4.246;2023-04-25T08:33:07;15.10;;;3.25;;
53409;SDS011;66590;50.734;4.246;2023-04-25T08:35:34;11.95;;;3.70;;
53409;SDS011;66590;50.734;4.246;2023-04-25T08:38:01;10.38;;;3.53;;
53409;SDS011;66590;50.734;4.246;2023-04-25T08:40:28;10.35;;;3.30;;
53409;SDS011;66590;50.734;4.246;2023-04-25T08:42:56;14.77;;;3.33;;
53409;SDS011;66590;50.734;4.246;2023-04-25T08:45:24;11.88;;;3.60;;
53409;SDS011;66590;50.734;4.246;2023-04-25T08:47:54;8.60;;;3.40;;
53409;SDS011;66590;50.734;4.246;2023-04-25T08:50:25;9.77;;;3.65;;
53409;SDS011;66590;50.734;4.246;2023-04-25T08:52:53;15.20;;;3.85;;
53409;SDS011;66590;50.734;4.246;2023-04-25T08:55:24;10.40;;;3.40;;
53409;SDS011;66590;50.734;4.246;2023-04-25T08:57:53;9.82;;;3.60;;
53409;SDS011;66590;50.734;4.246;2023-04-25T09:00:22;10.18;;;3.10;;
53409;SDS011;66590;50.734;4.246;2023-04-25T09:02:50;8.95;;;3.80;;
53409;SDS011;66590;50.734;4.246;2023-04-25T09:05:17;10.20;;;3.17;;
53409;SDS011;66590;50.734;4.246;2023-04-25T09:07:48;9.20;;;2.97;;
53409;SDS011;66590;50.734;4.246;2023-04-25T09:10:16;9.32;;;3.80;;
53409;SDS011;66590;50.734;4.246;2023-04-25T09:12:43;6.30;;;2.45;;
53409;SDS011;66590;50.734;4.246;2023-04-25T09:15:11;9.13;;;3.05;;
53409;SDS011;66590;50.734;4.246;2023-04-25T09:17:46;12.25;;;3.67;;
53409;SDS011;66590;50.734;4.246;2023-04-25T09:20:21;8.77;;;2.65;;
53409;SDS011;66590;50.734;4.246;2023-04-25T09:22:50;13.95;;;3.00;;
53409;SDS011;66590;50.734;4.246;2023-04-25T09:25:27;8.70;;;2.85;;
53409;SDS011;66590;50.734;4.246;2023-04-25T09:28:03;6.47;;;2.97;;
53409;SDS011;66590;50.734;4.246;2023-04-25T09:30:32;8.38;;;3.35;;
53409;SDS011;66590;50.734;4.246;2023-04-25T09:33:06;10.43;;;3.10;;
53409;SDS011;66590;50.734;4.246;2023-04-25T09:35:35;9.90;;;2.60;;
53409;SDS011;66590;50.734;4.246;2023-04-25T09:38:07;9.00;;;2.80;;
53409;SDS011;66590;50.734;4.246;2023-04-25T09:40:39;8.77;;;2.97;;
53409;SDS011;66590;50.734;4.246;2023-04-25T09:43:09;9.30;;;2.72;;
53409;SDS011;66590;50.734;4.246;2023-04-25T09:45:40;12.23;;;2.47;;
53409;SDS011;66590;50.734;4.246;2023-04-25T09:48:08;9.35;;;3.58;;
53409;SDS011;66590;50.734;4.246;2023-04-25T09:50:35;7.18;;;3.20;;
53409;SDS011;66590;50.734;4.246;2023-04-25T09:53:03;9.98;;;2.95;;
53409;SDS011;66590;50.734;4.246;2023-04-25T09:55:32;9.10;;;3.30;;
53409;SDS011;66590;50.734;4.246;2023-04-25T09:58:03;10.40;;;3.50;;
53409;SDS011;66590;50.734;4.246;2023-04-25T10:00:32;11.75;;;3.60;;
53409;SDS011;66590;50.734;4.246;2023-04-25T10:03:00;10.10;;;2.90;;
53409;SDS011;66590;50.734;4.246;2023-04-25T10:05:28;11.48;;;3.10;;
53409;SDS011;66590;50.734;4.246;2023-04-25T10:07:58;8.52;;;2.85;;
53409;SDS011;66590;50.734;4.246;2023-04-25T10:10:28;8.18;;;2.53;;
53409;SDS011;66590;50.734;4.246;2023-04-25T10:12:58;8.15;;;2.70;;
53409;SDS011;66590;50.734;4.246;2023-04-25T10:15:26;7.53;;;2.97;;
53409;SDS011;66590;50.734;4.246;2023-04-25T10:17:54;5.32;;;2.17;;
53409;SDS011;66590;50.734;4.246;2023-04-25T10:20:22;6.78;;;2.20;;
53409;SDS011;66590;50.734;4.246;2023-04-25T10:22:50;7.57;;;2.22;;
53409;SDS011;66590;50.734;4.246;2023-04-25T10:25:20;10.75;;;2.92;;
53409;SDS011;66590;50.734;4.246;2023-04-25T10:27:49;8.07;;;2.30;;
53409;SDS011;66590;50.734;4.246;2023-04-25T10:30:18;5.68;;;2.17;;
53409;SDS011;66590;50.734;4.246;2023-04-25T10:32:45;8.13;;;2.22;;
53409;SDS011;66590;50.734;4.246;2023-04-25T10:35:14;6.18;;;2.47;;
53409;SDS011;66590;50.734;4.246;2023-04-25T10:37:58;6.70;;;2.30;;
53409;SDS011;66590;50.734;4.246;2023-04-25T10:40:26;5.15;;;1.80;;
53409;SDS011;66590;50.734;4.246;2023-04-25T10:42:53;4.85;;;1.73;;
53409;SDS011;66590;50.734;4.246;2023-04-25T10:45:22;6.10;;;2.20;;
53409;SDS011;66590;50.734;4.246;2023-04-25T10:47:49;7.28;;;2.42;;
53409;SDS011;66590;50.734;4.246;2023-04-25T10:50:16;4.70;;;2.00;;
53409;SDS011;66590;50.734;4.246;2023-04-25T10:52:44;5.20;;;2.10;;
53409;SDS011;66590;50.734;4.246;2023-04-25T10:55:11;6.15;;;1.98;;
53409;SDS011;66590;50.734;4.246;2023-04-25T10:57:39;5.13;;;1.90;;
53409;SDS011;66590;50.734;4.246;2023-04-25T11:00:08;9.05;;;2.78;;
53409;SDS011;66590;50.734;4.246;2023-04-25T11:02:41;7.60;;;2.28;;
53409;SDS011;66590;50.734;4.246;2023-04-25T11:05:10;5.45;;;2.00;;
53409;SDS011;66590;50.734;4.246;2023-04-25T11:07:44;7.18;;;2.28;;
53409;SDS011;66590;50.734;4.246;2023-04-25T11:10:30;8.68;;;2.50;;
53409;SDS011;66590;50.734;4.246;2023-04-25T11:12:58;9.82;;;2.53;;
53409;SDS011;66590;50.734;4.246;2023-04-25T11:15:25;12.18;;;2.55;;
53409;SDS011;66590;50.734;4.246;2023-04-25T11:17:54;6.78;;;2.40;;
53409;SDS011;66590;50.734;4.246;2023-04-25T11:20:22;13.57;;;2.30;;
53409;SDS011;66590;50.734;4.246;2023-04-25T11:22:52;8.63;;;2.53;;
53409;SDS011;66590;50.734;4.246;2023-04-25T11:25:19;9.57;;;2.55;;
53409;SDS011;66590;50.734;4.246;2023-04-25T11:27:49;7.95;;;2.05;;
53409;SDS011;66590;50.734;4.246;2023-04-25T11:30:17;6.53;;;1.90;;
53409;SDS011;66590;50.734;4.246;2023-04-25T11:32:45;8.05;;;2.75;;
53409;SDS011;66590;50.734;4.246;2023-04-25T11:35:14;6.00;;;2.17;;
53409;SDS011;66590;50.734;4.246;2023-04-25T11:37:41;8.05;;;2.10;;
53409;SDS011;66590;50.734;4.246;2023-04-25T11:40:11;9.20;;;1.98;;
53409;SDS011;66590;50.734;4.246;2023-04-25T11:42:38;8.40;;;2.28;;
53409;SDS011;66590;50.734;4.246;2023-04-25T11:45:09;5.38;;;1.90;;
53409;SDS011;66590;50.734;4.246;2023-04-25T11:47:36;7.43;;;2.25;;
53409;SDS011;66590;50.734;4.246;2023-04-25T11:50:05;6.85;;;2.38;;
53409;SDS011;66590;50.734;4.246;2023-04-25T11:52:38;5.30;;;2.17;;
53409;SDS011;66590;50.734;4.246;2023-04-25T11:55:08;5.82;;;1.90;;
53409;SDS011;66590;50.734;4.246;2023-04-25T11:57:37;11.20;;;2.60;;
53409;SDS011;66590;50.734;4.246;2023-04-25T12:00:09;9.25;;;1.88;;
53409;SDS011;66590;50.734;4.246;2023-04-25T12:02:55;7.82;;;2.28;;
53409;SDS011;66590;50.734;4.246;2023-04-25T12:05:23;6.00;;;2.30;;
53409;SDS011;66590;50.734;4.246;2023-04-25T12:08:10;5.28;;;1.88;;
53409;SDS011;66590;50.734;4.246;2023-04-25T12:10:38;5.00;;;1.42;;
53409;SDS011;66590;50.734;4.246;2023-04-25T12:13:21;3.30;;;1.50;;
53409;SDS011;66590;50.734;4.246;2023-04-25T12:15:49;7.65;;;2.03;;
53409;SDS011;66590;50.734;4.246;2023-04-25T12:18:18;3.95;;;1.50;;
53409;SDS011;66590;50.734;4.246;2023-04-25T12:20:46;5.30;;;1.35;;
53409;SDS011;66590;50.734;4.246;2023-04-25T12:23:14;4.78;;;1.70;;
53409;SDS011;66590;50.734;4.246;2023-04-25T12:25:42;7.85;;;1.88;;
53409;SDS011;66590;50.734;4.246;2023-04-25T12:28:10;5.40;;;2.40;;
53409;SDS011;66590;50.734;4.246;2023-04-25T12:30:51;4.28;;;1.70;;
53409;SDS011;66590;50.734;4.246;2023-04-25T12:33:19;2.95;;;1.40;;
53409;SDS011;66590;50.734;4.246;2023-04-25T12:35:46;7.03;;;1.73;;
53409;SDS011;66590;50.734;4.246;2023-04-25T12:38:21;8.55;;;2.10;;
53409;SDS011;66590;50.734;4.246;2023-04-25T12:40:49;2.80;;;1.65;;
53409;SDS011;66590;50.734;4.246;2023-04-25T12:43:16;3.80;;;1.40;;
53409;SDS011;66590;50.734;4.246;2023-04-25T12:45:44;9.80;;;1.83;;
53409;SDS011;66590;50.734;4.246;2023-04-25T12:48:11;4.85;;;1.40;;
53409;SDS011;66590;50.734;4.246;2023-04-25T12:50:38;5.30;;;1.83;;
53409;SDS011;66590;50.734;4.246;2023-04-25T12:53:06;6.53;;;1.52;;
53409;SDS011;66590;50.734;4.246;2023-04-25T12:55:35;4.00;;;1.55;;
53409;SDS011;66590;50.734;4.246;2023-04-25T12:58:02;4.72;;;1.48;;
53409;SDS011;66590;50.734;4.246;2023-04-25T13:00:29;4.30;;;1.83;;
53409;SDS011;66590;50.734;4.246;2023-04-25T13:02:56;2.85;;;1.45;;
53409;SDS011;66590;50.734;4.246;2023-04-25T13:05:24;5.95;;;1.50;;
53409;SDS011;66590;50.734;4.246;2023-04-25T13:07:51;3.17;;;1.45;;
53409;SDS011;66590;50.734;4.246;2023-04-25T13:10:18;2.53;;;1.30;;
53409;SDS011;66590;50.734;4.246;2023-04-25T13:12:46;3.53;;;1.30;;
53409;SDS011;66590;50.734;4.246;2023-04-25T13:15:13;3.30;;;1.80;;
53409;SDS011;66590;50.734;4.246;2023-04-25T13:17:41;4.18;;;1.67;;
53409;SDS011;66590;50.734;4.246;2023-04-25T13:20:08;4.90;;;1.55;;
53409;SDS011;66590;50.734;4.246;2023-04-25T13:22:37;5.60;;;1.80;;
53409;SDS011;66590;50.734;4.246;2023-04-25T13:25:05;4.35;;;1.85;;
53409;SDS011;66590;50.734;4.246;2023-04-25T13:27:33;4.63;;;1.92;;
53409;SDS011;66590;50.734;4.246;2023-04-25T13:30:02;6.50;;;2.05;;
53409;SDS011;66590;50.734;4.246;2023-04-25T13:32:31;7.68;;;2.33;;
53409;SDS011;66590;50.734;4.246;2023-04-25T13:34:58;7.60;;;2.20;;
53409;SDS011;66590;50.734;4.246;2023-04-25T13:37:25;7.38;;;2.70;;
53409;SDS011;66590;50.734;4.246;2023-04-25T13:39:52;5.20;;;1.88;;
53409;SDS011;66590;50.734;4.246;2023-04-25T13:42:18;8.15;;;2.20;;
53409;SDS011;66590;50.734;4.246;2023-04-25T13:44:45;7.68;;;1.70;;
53409;SDS011;66590;50.734;4.246;2023-04-25T13:47:14;6.20;;;1.75;;
53409;SDS011;66590;50.734;4.246;2023-04-25T13:49:41;3.80;;;1.75;;
53409;SDS011;66590;50.734;4.246;2023-04-25T13:52:08;4.50;;;1.70;;
53409;SDS011;66590;50.734;4.246;2023-04-25T13:54:35;5.53;;;1.80;;
53409;SDS011;66590;50.734;4.246;2023-04-25T13:57:02;4.25;;;1.75;;
53409;SDS011;66590;50.734;4.246;2023-04-25T13:59:29;3.63;;;1.88;;
53409;SDS011;66590;50.734;4.246;2023-04-25T14:01:56;8.95;;;2.38;;
53409;SDS011;66590;50.734;4.246;2023-04-25T14:04:25;3.60;;;1.70;;
53409;SDS011;66590;50.734;4.246;2023-04-25T14:06:52;6.45;;;1.90;;
53409;SDS011;66590;50.734;4.246;2023-04-25T14:09:19;6.22;;;1.88;;
53409;SDS011;66590;50.734;4.246;2023-04-25T14:11:46;5.13;;;1.88;;
53409;SDS011;66590;50.734;4.246;2023-04-25T14:14:13;4.70;;;2.00;;
53409;SDS011;66590;50.734;4.246;2023-04-25T14:16:40;3.05;;;1.80;;
53409;SDS011;66590;50.734;4.246;2023-04-25T14:19:07;5.35;;;1.85;;
53409;SDS011;66590;50.734;4.246;2023-04-25T14:21:35;5.68;;;1.80;;
53409;SDS011;66590;50.734;4.246;2023-04-25T14:24:03;3.25;;;1.63;;
53409;SDS011;66590;50.734;4.246;2023-04-25T14:26:30;5.63;;;1.98;;
53409;SDS011;66590;50.734;4.246;2023-04-25T14:28:59;6.53;;;1.75;;
53409;SDS011;66590;50.734;4.246;2023-04-25T14:31:26;3.83;;;1.65;;
53409;SDS011;66590;50.734;4.246;2023-04-25T14:33:53;6.13;;;1.98;;
53409;SDS011;66590;50.734;4.246;2023-04-25T14:36:24;5.93;;;1.90;;
53409;SDS011;66590;50.734;4.246;2023-04-25T14:38:52;4.47;;;1.83;;
53409;SDS011;66590;50.734;4.246;2023-04-25T14:41:19;5.38;;;1.80;;
53409;SDS011;66590;50.734;4.246;2023-04-25T14:43:47;6.80;;;2.10;;
53409;SDS011;66590;50.734;4.246;2023-04-25T14:46:14;7.55;;;1.85;;